Time;durP1;ratioP1;P1;durP2;ratioP2;P2;SDS_P1;SDS_P2;PMS_P1;PMS_P2;Temp;Humidity;BMP_temperature;BMP_pressure;BME280_temperature;BME280_humidity;BME280_pressure;Samples;Min_cycle;Max_cycle;Signal;HPM_P1;HPM_P2
2022/07/04 00:01:58;;;;;;;;;1.75;1.00;;;;;18.75;48.46;101856.28;6308790;22;45454;-87
2022/07/04 00:04:23;;;;;;;;;3.00;1.00;;;;;18.74;47.73;101848.47;6309005;22;46113;-88
2022/07/04 00:06:49;;;;;;;;;0.75;0.75;;;;;18.72;48.89;101845.91;6310935;22;52288;-88
2022/07/04 00:09:14;;;;;;;;;0.50;0.50;;;;;18.71;49.43;101856.50;6310194;22;45188;-87
2022/07/04 00:11:39;;;;;;;;;2.00;1.00;;;;;18.62;48.91;101855.13;6309130;22;45410;-87
2022/07/04 00:14:05;;;;;;;;;1.00;0.25;;;;;18.56;49.29;101855.41;6281896;22;58631;-87
2022/07/04 00:16:30;;;;;;;;;1.75;1.00;;;;;18.57;48.96;101855.38;6308440;22;51536;-87
2022/07/04 00:18:56;;;;;;;;;2.00;1.00;;;;;18.53;50.33;101852.91;6309013;22;45342;-86
2022/07/04 00:21:21;;;;;;;;;3.00;1.00;;;;;18.38;49.75;101839.47;6308918;22;45258;-87
2022/07/04 00:23:46;;;;;;;;;1.00;1.00;;;;;18.30;49.74;101835.50;6307984;22;62101;-87
2022/07/04 00:26:12;;;;;;;;;0.75;0.75;;;;;18.34;50.70;101856.38;6308252;22;45308;-87
2022/07/04 00:28:37;;;;;;;;;2.75;1.00;;;;;18.28;50.38;101853.16;6283069;22;45310;-88
2022/07/04 00:31:03;;;;;;;;;0.75;0.25;;;;;18.15;50.43;101848.41;6308900;22;45278;-87
2022/07/04 00:33:28;;;;;;;;;2.00;0.50;;;;;18.15;50.55;101853.69;6308836;22;45346;-86
2022/07/04 00:35:53;;;;;;;;;1.25;0.50;;;;;18.16;50.40;101849.25;6309421;22;45253;-87
2022/07/04 00:38:19;;;;;;;;;0.75;0.75;;;;;18.24;51.35;101868.25;6336817;22;45235;-88
2022/07/04 00:40:44;;;;;;;;;0.50;0.50;;;;;18.14;50.98;101862.50;6308376;22;45329;-87
2022/07/04 00:43:09;;;;;;;;;1.00;1.00;;;;;18.09;50.77;101864.50;6308851;22;45326;-88
2022/07/04 00:45:35;;;;;;;;;0.00;0.00;;;;;18.10;50.07;101868.81;6336367;22;45351;-88
2022/07/04 00:48:00;;;;;;;;;3.50;1.00;;;;;18.06;51.35;101855.84;6309322;22;45321;-87
2022/07/04 00:50:26;;;;;;;;;0.00;0.00;;;;;18.03;51.23;101859.47;6339746;22;45432;-88
2022/07/04 00:52:52;;;;;;;;;1.50;0.50;;;;;18.03;50.63;101872.63;6308385;22;46055;-87
2022/07/04 00:55:18;;;;;;;;;2.00;0.75;;;;;18.01;52.39;101871.84;6281956;22;45435;-88
2022/07/04 00:57:43;;;;;;;;;1.25;1.00;;;;;17.99;51.01;101871.91;6308939;22;45242;-87
2022/07/04 01:00:09;;;;;;;;;0.25;0.00;;;;;17.97;51.02;101876.38;6282790;22;45480;-88
2022/07/04 01:02:34;;;;;;;;;0.75;0.75;;;;;17.96;52.41;101866.78;6282560;22;48043;-88
2022/07/04 01:04:59;;;;;;;;;0.00;0.00;;;;;17.89;51.22;101865.31;6317119;22;51781;-88
2022/07/04 01:07:25;;;;;;;;;0.75;0.75;;;;;17.93;51.63;101879.22;6321161;22;45762;-88
2022/07/04 01:09:50;;;;;;;;;3.00;0.00;;;;;17.87;50.99;101874.22;6287935;22;45444;-87
2022/07/04 01:12:29;;;;;;;;;0.75;0.75;;;;;17.89;50.86;101880.28;6309261;22;45553;-87
2022/07/04 01:14:54;;;;;;;;;3.00;1.00;;;;;17.89;51.35;101881.13;6336290;22;45502;-87
2022/07/04 01:17:20;;;;;;;;;1.25;0.25;;;;;17.89;51.83;101888.19;6308708;22;45314;-87
2022/07/04 01:19:46;;;;;;;;;1.00;1.00;;;;;17.84;51.82;101890.09;6308244;22;50449;-87
2022/07/04 01:22:11;;;;;;;;;1.00;0.00;;;;;17.68;51.68;101871.44;6334000;22;64624;-88
2022/07/04 01:24:37;;;;;;;;;1.00;1.00;;;;;17.71;51.66;101868.69;6308098;22;45393;-87
2022/07/04 01:27:02;;;;;;;;;1.00;1.00;;;;;17.61;51.93;101853.25;6337205;22;45392;-88
2022/07/04 01:29:28;;;;;;;;;1.00;1.00;;;;;17.65;51.25;101855.78;6336440;22;45379;-87
2022/07/04 01:31:53;;;;;;;;;1.00;1.00;;;;;17.73;51.18;101861.56;6308771;22;46131;-87
2022/07/04 01:34:19;;;;;;;;;2.50;1.00;;;;;17.70;50.99;101854.66;6336500;22;45300;-87
2022/07/04 01:36:45;;;;;;;;;2.25;1.00;;;;;17.71;51.75;101860.78;6334970;22;45211;-88
2022/07/04 01:39:10;;;;;;;;;1.75;1.75;;;;;17.74;51.19;101865.94;6308977;22;45163;-88
2022/07/04 01:41:35;;;;;;;;;2.00;1.00;;;;;17.76;51.79;101870.22;6282073;22;48094;-88
2022/07/04 01:44:02;;;;;;;;;1.00;1.00;;;;;17.77;52.11;101876.31;6308731;22;45239;-87
2022/07/04 01:46:27;;;;;;;;;1.00;1.00;;;;;17.65;51.92;101858.41;6308588;22;45262;-87
2022/07/04 01:48:52;;;;;;;;;2.25;2.25;;;;;17.67;51.85;101865.31;6308700;22;45331;-87
2022/07/04 01:51:18;;;;;;;;;1.00;1.00;;;;;17.58;51.69;101855.16;6307834;22;54467;-88
2022/07/04 01:53:43;;;;;;;;;1.00;1.00;;;;;17.62;52.18;101877.81;6282010;22;45119;-88
2022/07/04 01:56:08;;;;;;;;;2.75;1.00;;;;;17.55;52.78;101871.06;6282012;22;48408;-87
2022/07/04 01:58:34;;;;;;;;;2.00;1.00;;;;;17.45;52.81;101860.06;6335778;22;49087;-88
2022/07/04 02:03:45;;;;;;;;;1.00;1.00;;;;;17.42;52.46;101873.31;6312772;22;45550;-87
2022/07/04 02:06:10;;;;;;;;;2.00;1.00;;;;;17.44;53.08;101871.53;6281949;22;45286;-87
2022/07/04 02:11:20;;;;;;;;;3.00;1.00;;;;;17.44;53.80;101871.53;6312699;22;45726;-87
2022/07/04 02:13:45;;;;;;;;;1.00;1.00;;;;;17.32;53.55;101854.41;6308528;22;45352;-87
2022/07/04 02:16:10;;;;;;;;;1.00;1.00;;;;;17.30;53.69;101852.78;6309640;22;45245;-87
2022/07/04 02:18:36;;;;;;;;;1.00;1.00;;;;;17.29;53.53;101854.56;6308492;22;45273;-86
2022/07/04 02:21:01;;;;;;;;;3.25;0.00;;;;;17.30;53.31;101863.31;6308009;22;45439;-87
2022/07/04 02:23:26;;;;;;;;;1.00;1.00;;;;;17.20;54.20;101850.50;6308157;22;45310;-87
2022/07/04 02:25:52;;;;;;;;;2.00;1.25;;;;;17.18;53.79;101854.13;6335807;22;61686;-86
2022/07/04 02:28:18;;;;;;;;;1.00;1.00;;;;;17.07;53.71;101845.75;6282085;22;45540;-88
2022/07/04 02:30:43;;;;;;;;;1.00;1.00;;;;;17.15;53.98;101854.22;6307894;22;48464;-87
2022/07/04 02:33:09;;;;;;;;;1.25;1.25;;;;;17.13;53.82;101856.91;6307749;22;46019;-88
2022/07/04 02:35:34;;;;;;;;;1.00;0.25;;;;;17.02;54.00;101836.28;6307847;22;60608;-87
2022/07/04 02:38:00;;;;;;;;;1.00;1.00;;;;;17.08;54.54;101843.06;6307964;22;45223;-88
2022/07/04 02:40:25;;;;;;;;;3.25;1.00;;;;;17.08;54.41;101850.13;6307716;22;46520;-87
2022/07/04 02:42:50;;;;;;;;;2.00;2.00;;;;;17.01;54.72;101847.75;6307072;22;51666;-87
2022/07/04 02:45:16;;;;;;;;;1.00;1.00;;;;;17.02;54.28;101857.31;6308613;22;45688;-87
2022/07/04 02:47:41;;;;;;;;;3.50;2.00;;;;;17.01;54.01;101850.38;6307466;22;52336;-87
2022/07/04 02:50:07;;;;;;;;;2.00;1.75;;;;;17.07;54.48;101854.53;6307741;22;47402;-87
2022/07/04 02:52:32;;;;;;;;;2.00;2.00;;;;;17.13;54.20;101870.06;6307334;22;45319;-87
2022/07/04 02:54:57;;;;;;;;;2.00;1.00;;;;;17.07;53.80;101849.28;6307892;22;45264;-87
2022/07/04 02:57:23;;;;;;;;;1.00;1.00;;;;;17.03;53.95;101845.03;6281827;22;45279;-86
2022/07/04 02:59:48;;;;;;;;;1.50;1.00;;;;;17.02;53.81;101851.22;6333752;22;47175;-86
2022/07/04 03:02:14;;;;;;;;;2.50;1.50;;;;;17.00;54.67;101853.91;6307960;22;45394;-86
2022/07/04 03:04:39;;;;;;;;;2.00;2.00;;;;;16.93;55.29;101848.94;6307623;22;50533;-86
2022/07/04 03:07:07;;;;;;;;;3.50;2.00;;;;;16.93;55.35;101872.59;6307204;22;45262;-86
2022/07/04 03:09:32;;;;;;;;;2.00;2.00;;;;;16.88;54.43;101870.13;6307414;22;47230;-87
2022/07/04 03:11:57;;;;;;;;;2.00;2.00;;;;;16.76;54.87;101854.78;6307024;22;52909;-87
2022/07/04 03:14:23;;;;;;;;;2.00;2.00;;;;;16.78;54.91;101872.22;6308107;22;45496;-87
2022/07/04 03:16:48;;;;;;;;;2.00;2.00;;;;;16.77;54.63;101888.03;6308551;22;45435;-86
2022/07/04 03:19:13;;;;;;;;;2.00;2.00;;;;;16.71;54.99;101872.50;6282409;22;48393;-87
2022/07/04 03:21:39;;;;;;;;;3.50;3.00;;;;;16.64;54.89;101858.72;6309032;22;49435;-86
2022/07/04 03:24:05;;;;;;;;;4.75;2.00;;;;;16.75;55.34;101885.50;6309242;22;45250;-86
2022/07/04 03:26:31;;;;;;;;;4.00;1.75;;;;;16.68;55.40;101891.88;6336891;22;45241;-86
2022/07/04 03:28:58;;;;;;;;;2.50;2.00;;;;;16.60;55.72;101883.41;6282904;22;48278;-85
2022/07/04 03:31:24;;;;;;;;;2.25;1.50;;;;;16.50;55.34;101877.63;6337009;22;45779;-86
2022/07/04 03:33:50;;;;;;;;;2.00;2.00;;;;;16.47;55.72;101888.22;6282471;22;45180;-86
2022/07/04 03:36:15;;;;;;;;;2.00;2.00;;;;;16.41;55.29;101884.06;6309381;22;45324;-86
2022/07/04 03:38:41;;;;;;;;;2.00;1.50;;;;;16.46;56.09;101886.53;6309175;22;48038;-86
2022/07/04 03:41:06;;;;;;;;;3.75;2.25;;;;;16.33;55.95;101877.38;6286250;22;54720;-86
2022/07/04 03:43:32;;;;;;;;;3.00;1.75;;;;;16.29;56.14;101873.13;6313037;22;45266;-86
2022/07/04 03:45:57;;;;;;;;;1.00;1.00;;;;;16.33;56.06;101896.63;6313627;22;45536;-87
2022/07/04 03:48:22;;;;;;;;;1.75;1.00;;;;;16.24;56.05;101870.66;6309671;22;47288;-86
2022/07/04 03:50:48;;;;;;;;;3.75;2.00;;;;;16.38;56.21;101893.81;6336566;22;53810;-85
2022/07/04 03:53:14;;;;;;;;;5.00;2.00;;;;;16.24;56.29;101865.41;6308948;22;45262;-86
2022/07/04 03:55:40;;;;;;;;;3.25;2.00;;;;;16.31;57.00;101880.06;6309377;22;45294;-86
2022/07/04 03:58:05;;;;;;;;;3.00;1.50;;;;;16.26;56.08;101876.72;6308445;22;49052;-86
2022/07/04 04:00:31;;;;;;;;;2.00;2.00;;;;;16.28;56.56;101874.03;6308666;22;45335;-86
2022/07/04 04:02:57;;;;;;;;;3.00;1.00;;;;;16.29;56.68;101860.84;6308657;22;45339;-86
2022/07/04 04:05:30;;;;;;;;;4.00;2.50;;;;;16.29;56.64;101862.59;6309031;22;45456;-87
2022/07/04 04:07:57;;;;;;;;;2.00;2.00;;;;;16.39;56.98;101880.63;6308793;22;45986;-86
2022/07/04 04:10:24;;;;;;;;;1.00;1.00;;;;;16.30;56.45;101870.44;6336370;22;45171;-86
2022/07/04 04:12:49;;;;;;;;;3.00;2.00;;;;;16.36;56.52;101879.88;6308968;22;45253;-87
2022/07/04 04:15:14;;;;;;;;;1.75;1.50;;;;;16.30;57.18;101870.44;6282892;22;45254;-86
2022/07/04 04:17:40;;;;;;;;;1.25;1.00;;;;;16.34;56.74;101881.69;6308201;22;46972;-87
2022/07/04 04:20:07;;;;;;;;;2.75;2.00;;;;;16.39;56.22;101891.13;6281808;22;59326;-86
2022/07/04 04:22:33;;;;;;;;;3.25;1.00;;;;;16.27;56.96;101873.19;6283016;22;45302;-87
2022/07/04 04:24:58;;;;;;;;;3.25;1.00;;;;;16.26;56.77;101876.72;6309062;22;52203;-86
2022/07/04 04:27:23;;;;;;;;;2.00;2.00;;;;;16.21;56.95;101879.53;6308136;22;54981;-87
2022/07/04 04:29:49;;;;;;;;;1.00;1.00;;;;;16.16;56.67;101889.31;6308056;22;47437;-86
2022/07/04 04:32:14;;;;;;;;;2.00;1.00;;;;;16.25;57.43;101911.78;6308107;22;45376;-86
2022/07/04 04:34:40;;;;;;;;;1.75;1.25;;;;;16.20;57.15;101904.06;6308586;22;45268;-86
2022/07/04 04:37:05;;;;;;;;;0.25;0.25;;;;;16.23;56.74;101911.84;6308577;22;46801;-86
2022/07/04 04:39:30;;;;;;;;;4.50;1.00;;;;;16.17;56.82;101892.78;6282569;22;46007;-86
2022/07/04 04:41:56;;;;;;;;;2.00;1.00;;;;;16.31;56.65;101908.09;6308507;22;46974;-86
2022/07/04 04:44:21;;;;;;;;;3.00;1.75;;;;;16.34;57.26;101903.56;6308763;22;45417;-87
2022/07/04 04:46:46;;;;;;;;;1.00;1.00;;;;;16.37;57.69;101908.72;6307668;22;56097;-86
2022/07/04 04:49:12;;;;;;;;;2.25;2.25;;;;;16.33;57.66;101915.00;6309252;22;45301;-86
2022/07/04 04:51:38;;;;;;;;;4.00;2.00;;;;;16.31;57.49;101915.97;6308988;22;45414;-86
2022/07/04 04:54:03;;;;;;;;;1.25;1.25;;;;;16.24;56.99;101907.44;6282769;22;45600;-86
2022/07/04 04:56:29;;;;;;;;;4.00;1.75;;;;;16.28;57.77;101914.31;6308953;22;45363;-86
2022/07/04 04:58:54;;;;;;;;;1.25;1.25;;;;;16.24;57.38;101907.44;6309075;22;45347;-86
2022/07/04 05:01:20;;;;;;;;;1.75;1.75;;;;;16.33;57.36;101917.63;6308549;22;45407;-86
2022/07/04 05:03:45;;;;;;;;;3.75;3.00;;;;;16.25;58.33;101915.28;6336531;22;45291;-86
2022/07/04 05:06:10;;;;;;;;;3.00;3.00;;;;;16.16;57.75;101901.59;6308211;22;50262;-86
2022/07/04 05:08:36;;;;;;;;;3.00;2.00;;;;;16.17;57.88;101898.91;6308065;22;51620;-86
2022/07/04 05:11:01;;;;;;;;;2.00;2.00;;;;;16.23;58.05;101918.84;6334761;22;45318;-86
2022/07/04 05:13:26;;;;;;;;;3.00;3.00;;;;;16.20;58.32;101913.72;6308821;22;45427;-86
2022/07/04 05:15:52;;;;;;;;;2.25;2.25;;;;;16.22;58.31;101918.00;6307272;22;51086;-87
2022/07/04 05:18:17;;;;;;;;;2.00;2.00;;;;;16.22;57.88;101918.00;6336136;22;45340;-86
2022/07/04 05:20:43;;;;;;;;;2.75;1.50;;;;;16.28;58.03;101918.72;6282564;22;45312;-86
2022/07/04 05:23:08;;;;;;;;;2.00;2.00;;;;;16.19;58.99;101914.59;6309150;22;45470;-86
2022/07/04 05:25:33;;;;;;;;;3.75;2.00;;;;;16.11;58.86;101906.16;6307950;22;52779;-86
2022/07/04 05:27:59;;;;;;;;;1.50;1.25;;;;;16.25;58.60;101917.03;6282427;22;45290;-86
2022/07/04 05:30:24;;;;;;;;;2.25;2.25;;;;;16.28;58.77;101922.19;6360802;22;45303;-86
2022/07/04 05:32:50;;;;;;;;;3.00;3.00;;;;;16.23;58.42;101895.19;6308156;22;45290;-86
2022/07/04 05:35:15;;;;;;;;;2.75;2.25;;;;;16.35;58.66;101909.72;6308902;22;46287;-86
2022/07/04 05:37:40;;;;;;;;;2.00;2.00;;;;;16.37;58.07;101897.38;6308250;22;45362;-86
2022/07/04 05:40:06;;;;;;;;;2.50;1.25;;;;;16.33;59.33;101894.00;6333760;22;56372;-86
2022/07/04 05:42:34;;;;;;;;;2.75;2.75;;;;;16.33;59.13;101899.25;6308461;22;45298;-86
2022/07/04 05:44:59;;;;;;;;;2.75;2.50;;;;;16.35;58.54;101901.81;6281566;22;48439;-86
2022/07/04 05:47:25;;;;;;;;;3.00;2.50;;;;;16.36;58.10;101898.25;6282098;22;45932;-86
2022/07/04 05:49:51;;;;;;;;;2.25;2.25;;;;;16.57;58.67;101912.44;6308286;22;45310;-86
2022/07/04 05:52:17;;;;;;;;;3.00;2.00;;;;;16.53;57.81;101900.31;6308146;22;45297;-86
2022/07/04 05:54:42;;;;;;;;;2.25;1.25;;;;;16.59;58.00;101895.69;6307471;22;73496;-86
2022/07/04 05:57:08;;;;;;;;;2.00;2.00;;;;;16.68;58.83;101902.41;6307899;22;48954;-86
2022/07/04 05:59:33;;;;;;;;;3.00;2.00;;;;;16.65;58.41;101905.13;6307661;22;45277;-86
2022/07/04 06:01:58;;;;;;;;;2.00;2.00;;;;;16.72;58.00;101908.41;6335962;22;45499;-86
2022/07/04 06:04:24;;;;;;;;;3.50;2.00;;;;;16.74;58.21;101901.31;6335425;22;49812;-86
2022/07/04 06:06:49;;;;;;;;;2.50;1.25;;;;;16.76;57.74;101896.88;6335824;22;45273;-86
2022/07/04 06:09:15;;;;;;;;;2.00;2.00;;;;;16.78;57.70;101901.13;6308003;22;45220;-87
2022/07/04 06:11:40;;;;;;;;;4.25;3.00;;;;;16.88;57.54;101900.84;6308046;22;45262;-86
2022/07/04 06:14:05;;;;;;;;;4.00;2.75;;;;;16.89;58.23;101913.09;6281054;22;46046;-86
2022/07/04 06:16:31;;;;;;;;;5.00;3.00;;;;;16.79;58.22;101908.13;6308030;22;45318;-86
2022/07/04 06:18:56;;;;;;;;;2.00;2.00;;;;;16.73;58.09;101907.47;6308087;22;45523;-86
2022/07/04 06:21:21;;;;;;;;;6.00;3.00;;;;;16.80;58.90;101917.72;6335691;22;45699;-86
2022/07/04 06:23:47;;;;;;;;;2.00;2.00;;;;;16.76;58.39;101910.84;6308281;22;46269;-85
2022/07/04 06:26:12;;;;;;;;;3.25;2.00;;;;;16.82;58.31;101910.66;6307866;22;45297;-85
2022/07/04 06:28:38;;;;;;;;;2.00;2.00;;;;;16.92;59.52;101924.34;6308288;22;45341;-86
2022/07/04 06:31:03;;;;;;;;;4.00;3.75;;;;;16.89;58.94;101916.56;6307953;22;45270;-86
2022/07/04 06:33:29;;;;;;;;;3.00;3.00;;;;;16.81;59.01;101900.19;6281577;22;47326;-86
2022/07/04 06:35:54;;;;;;;;;4.00;3.00;;;;;16.83;58.95;101901.03;6336193;22;45271;-86
2022/07/04 06:38:25;;;;;;;;;3.25;3.25;;;;;16.95;58.45;101916.34;6334176;22;45283;-85
2022/07/04 06:40:54;;;;;;;;;5.25;3.25;;;;;16.99;58.21;101910.06;6307785;22;45329;-86
2022/07/04 06:43:19;;;;;;;;;3.00;3.00;;;;;17.08;58.16;101908.00;6307807;22;46099;-86
2022/07/04 06:45:45;;;;;;;;;3.25;2.00;;;;;17.14;58.23;101908.63;6308220;22;45319;-86
2022/07/04 06:48:10;;;;;;;;;2.75;2.75;;;;;17.20;57.91;101902.28;6307925;22;45547;-86
2022/07/04 06:50:36;;;;;;;;;1.00;0.00;;;;;17.33;57.23;101906.16;6308184;22;45728;-88
2022/07/04 06:53:03;;;;;;;;;2.75;2.75;;;;;17.45;57.05;101914.47;6336932;22;45927;-88
2022/07/04 06:55:34;;;;;;;;;1.75;1.75;;;;;17.38;57.72;101898.06;6318036;22;45235;-91
2022/07/04 06:58:02;;;;;;;;;3.75;2.00;;;;;17.39;57.40;101905.91;6315469;22;45234;-95
2022/07/04 07:00:30;;;;;;;;;5.00;2.00;;;;;17.42;57.30;101902.28;6348117;22;45284;-91
2022/07/04 07:03:04;;;;;;;;;2.00;2.00;;;;;17.53;58.40;101905.38;6346593;22;45359;-90
2022/07/04 07:12:31;;;;;;;;;3.00;1.00;;;;;17.63;57.03;101929.56;6180302;23;45608;-90
2022/07/04 07:14:59;;;;;;;;;2.50;2.00;;;;;17.59;57.22;101915.66;6132886;23;48196;-94
2022/07/04 07:17:27;;;;;;;;;2.00;2.00;;;;;17.58;56.67;101923.59;6159789;23;45271;-89
2022/07/04 07:24:30;;;;;;;;;;;;;;;;;;;;;
2022/07/04 07:32:29;;;;;;;;;1.50;1.50;;;;;17.76;56.49;101930.78;6306255;22;45283;-86
2022/07/04 07:34:57;;;;;;;;;2.50;1.25;;;;;17.88;55.86;101939.97;6305165;22;45277;-90
2022/07/04 07:37:54;;;;;;;;;2.00;2.00;;;;;18.02;55.08;101949.97;6280219;22;47059;-93
2022/07/04 07:40:16;;;;;;;;;2.25;2.00;;;;;18.01;54.87;101921.03;6306274;22;45218;-95
2022/07/04 07:42:42;;;;;;;;;2.00;2.00;;;;;18.21;54.48;101928.97;6278212;22;45714;-94
2022/07/04 07:45:10;;;;;;;;;2.75;2.00;;;;;18.36;54.41;101936.22;6308647;22;45751;-96
2022/07/04 07:47:35;;;;;;;;;2.75;2.00;;;;;18.44;53.86;101932.41;6278559;22;45297;-96
2022/07/04 07:50:03;;;;;;;;;2.00;2.00;;;;;18.54;53.39;101928.47;6279526;22;45229;-96
2022/07/04 07:52:28;;;;;;;;;2.50;2.25;;;;;18.53;53.59;101932.84;6279626;22;45243;-96
2022/07/04 07:54:54;;;;;;;;;3.25;2.00;;;;;18.60;53.56;101930.81;6278053;22;45519;-96
2022/07/04 07:57:19;;;;;;;;;1.75;1.75;;;;;18.57;53.07;101923.91;6305764;22;45328;-95
2022/07/04 07:59:44;;;;;;;;;1.50;1.25;;;;;18.65;53.01;101914.81;6252664;22;45256;-96
2022/07/04 08:02:10;;;;;;;;;3.50;2.00;;;;;18.77;52.24;101920.38;6306089;22;45350;-96
2022/07/04 08:04:37;;;;;;;;;2.75;1.00;;;;;18.88;51.00;101934.91;6303951;22;45218;-96
2022/07/04 08:07:07;;;;;;;;;4.00;1.50;;;;;18.82;51.07;101924.66;6305121;22;45612;-95
2022/07/04 08:09:34;;;;;;;;;5.25;1.50;;;;;18.74;52.10;101909.97;6277453;22;46132;-96
2022/07/04 08:12:01;;;;;;;;;4.00;2.00;;;;;18.76;51.22;101908.13;6278332;22;45388;-95
2022/07/04 08:14:27;;;;;;;;;1.00;1.00;;;;;18.88;51.32;101903.25;6305771;22;45352;-96
2022/07/04 08:16:52;;;;;;;;;4.25;2.00;;;;;19.07;51.59;101921.72;6278133;22;45304;-96
2022/07/04 08:19:18;;;;;;;;;2.50;2.25;;;;;19.01;50.62;101917.59;6278401;22;45246;-95
2022/07/04 08:21:46;;;;;;;;;1.00;1.00;;;;;19.00;50.54;101896.56;6306060;22;45281;-95
2022/07/04 08:24:12;;;;;;;;;4.25;2.25;;;;;19.23;50.42;101913.97;6278863;22;45405;-95
2022/07/04 08:26:37;;;;;;;;;1.00;1.00;;;;;19.34;50.57;101919.59;6278698;22;47013;-96
2022/07/04 08:29:02;;;;;;;;;2.25;1.25;;;;;19.38;49.93;101909.75;6253147;22;45255;-95
2022/07/04 08:31:28;;;;;;;;;3.00;1.00;;;;;19.48;49.67;101921.59;6306054;22;46157;-95
2022/07/04 08:33:54;;;;;;;;;2.00;2.00;;;;;19.53;49.62;101911.66;6278488;22;45255;-95
2022/07/04 08:36:20;;;;;;;;;2.50;1.75;;;;;19.63;49.81;101909.44;6252900;22;46948;-96
2022/07/04 08:38:45;;;;;;;;;1.00;1.00;;;;;19.62;49.83;101903.28;6304529;22;45298;-95
2022/07/04 08:41:12;;;;;;;;;3.25;2.00;;;;;19.59;49.00;101894.66;6278516;22;45414;-96
2022/07/04 08:43:38;;;;;;;;;0.00;0.00;;;;;19.61;46.47;101901.56;6277791;22;45425;-96
2022/07/04 08:46:04;;;;;;;;;3.00;1.00;;;;;19.62;47.11;101907.72;6251961;22;47838;-95
2022/07/04 08:48:33;;;;;;;;;2.00;1.00;;;;;19.56;46.63;101894.81;6278231;22;45334;-95
2022/07/04 08:51:15;;;;;;;;;1.25;1.00;;;;;19.56;46.81;101890.41;6292995;22;45332;-96
2022/07/04 08:53:51;;;;;;;;;0.50;0.00;;;;;19.62;46.53;101886.59;6320851;22;44837;-95
2022/07/04 08:59:04;;;;;;;;;1.00;1.00;;;;;19.75;47.03;101879.81;6286817;22;45226;-96
2022/07/04 09:01:29;;;;;;;;;1.50;1.00;;;;;19.84;46.94;101884.63;6308458;22;44748;-96
2022/07/04 09:03:58;;;;;;;;;1.00;1.00;;;;;19.97;46.43;101884.88;6252590;22;45184;-95
2022/07/04 09:06:29;;;;;;;;;1.00;1.00;;;;;20.04;46.06;101883.66;6279105;22;45701;-95
2022/07/04 09:08:57;;;;;;;;;1.25;1.00;;;;;20.07;46.13;101872.06;6252621;22;45406;-95
2022/07/04 09:11:22;;;;;;;;;2.00;1.00;;;;;20.21;46.48;101901.28;6278799;22;45294;-95
2022/07/04 09:13:48;;;;;;;;;2.50;2.50;;;;;20.07;45.29;101879.97;6278777;22;45329;-95
2022/07/04 09:16:21;;;;;;;;;1.00;1.00;;;;;20.08;46.74;101877.25;6277582;22;45401;-96
2022/07/04 09:18:49;;;;;;;;;1.00;1.00;;;;;20.12;45.85;101867.41;6280025;22;45354;-95
2022/07/04 09:21:24;;;;;;;;;3.00;1.00;;;;;20.22;45.43;101876.53;6306206;22;44622;-96
2022/07/04 09:23:52;;;;;;;;;2.00;2.00;;;;;20.28;44.92;101878.00;6254219;22;45254;-95
2022/07/04 09:26:19;;;;;;;;;1.25;1.00;;;;;20.38;44.50;101875.78;6280140;22;45540;-95
2022/07/04 09:28:59;;;;;;;;;1.00;1.00;;;;;20.53;43.82;101885.53;6278985;22;45296;-95
2022/07/04 09:31:26;;;;;;;;;1.00;1.00;;;;;20.63;43.68;101884.13;6260753;22;45256;-96
2022/07/04 09:34:04;;;;;;;;;2.00;2.00;;;;;20.59;43.75;101864.03;6308970;22;45350;-95
2022/07/04 09:36:36;;;;;;;;;1.00;0.00;;;;;20.68;44.23;101873.31;6305524;22;45455;-96
2022/07/04 09:39:14;;;;;;;;;3.25;1.00;;;;;20.86;44.08;101890.84;6304851;22;45208;-95
2022/07/04 09:41:55;;;;;;;;;2.00;2.00;;;;;20.91;43.42;101887.09;6308382;22;45329;-96
2022/07/04 09:44:31;;;;;;;;;3.00;1.50;;;;;20.98;43.71;101889.31;6311723;22;45324;-96
2022/07/04 09:46:56;;;;;;;;;3.00;1.00;;;;;20.97;42.97;101871.75;6307708;22;45340;-86
2022/07/04 09:49:22;;;;;;;;;1.00;1.00;;;;;21.02;42.76;101864.41;6308589;22;45327;-89
2022/07/04 09:51:52;;;;;;;;;1.00;1.00;;;;;21.08;41.88;101874.66;6304541;22;45246;-85
2022/07/04 09:54:31;;;;;;;;;1.00;1.00;;;;;21.07;42.79;101866.78;6334679;22;45294;-95
2022/07/04 09:57:01;;;;;;;;;0.00;0.00;;;;;21.20;41.78;101883.69;6314007;22;45454;-95
2022/07/04 09:59:28;;;;;;;;;1.00;1.00;;;;;21.29;41.45;101882.34;6315948;22;45509;-95
2022/07/04 10:02:12;;;;;;;;;1.00;1.00;;;;;21.31;41.98;101869.88;6307079;22;45301;-96
2022/07/04 10:04:49;;;;;;;;;0.00;0.00;;;;;21.44;42.25;101883.28;6305952;22;45242;-92
2022/07/04 10:07:43;;;;;;;;;1.00;1.00;;;;;21.50;41.11;101893.53;6302957;22;45406;-91
2022/07/04 10:10:30;;;;;;;;;1.00;1.00;;;;;21.52;40.99;101883.72;6302828;22;45655;-87
2022/07/04 10:12:58;;;;;;;;;2.00;2.00;;;;;21.58;41.37;101879.84;6330564;22;45345;-92
2022/07/04 10:15:27;;;;;;;;;2.50;1.00;;;;;21.57;41.94;101867.56;6304752;22;45416;-94
2022/07/04 10:18:00;;;;;;;;;5.75;1.00;;;;;21.63;40.98;101862.75;6294522;22;45565;-94
2022/07/04 10:20:53;;;;;;;;;2.00;2.00;;;;;21.85;40.59;101880.06;6282547;22;45353;-96
2022/07/04 10:23:30;;;;;;;;;;;;;;;;;;;;;
2022/07/04 10:26:03;;;;;;;;;1.00;1.00;;;;;21.97;40.00;101873.19;6285894;22;70291;-95
2022/07/04 10:28:32;;;;;;;;;4.00;1.00;;;;;21.90;39.55;101861.22;6277885;22;45667;-90
2022/07/04 10:30:58;;;;;;;;;2.00;2.00;;;;;22.02;39.75;101863.16;6251353;22;45646;-89
2022/07/04 10:33:28;;;;;;;;;0.75;0.75;;;;;22.11;39.90;101867.91;6277190;22;45251;-91
2022/07/04 10:36:08;;;;;;;;;;;;;;;;;;;;;
2022/07/04 10:38:46;;;;;;;;;1.00;1.00;;;;;22.25;41.15;101861.78;6278145;22;75403;-92
2022/07/04 10:41:11;;;;;;;;;2.50;1.50;;;;;22.44;40.21;101868.66;6277345;22;45472;-89
2022/07/04 10:44:07;;;;;;;;;1.75;1.75;;;;;22.37;38.39;101850.47;6256818;22;45345;-96
2022/07/04 10:46:49;;;;;;;;;1.00;1.00;;;;;22.54;40.06;101867.16;6291601;22;45483;-86
2022/07/04 10:49:17;;;;;;;;;1.00;0.00;;;;;22.65;39.38;101866.47;6276256;22;46384;-88
2022/07/04 10:51:49;;;;;;;;;1.50;1.50;;;;;22.71;37.81;101861.63;6303782;22;45277;-87
2022/07/04 10:54:37;;;;;;;;;2.50;2.00;;;;;22.77;38.55;101863.91;6274971;22;45290;-88
2022/07/04 10:57:20;;;;;;;;;4.00;0.75;;;;;22.83;37.86;101873.31;6250930;22;45450;-89
2022/07/04 10:59:59;;;;;;;;;1.00;1.00;;;;;22.94;37.71;101872.63;6276795;22;48025;-93
2022/07/04 11:02:35;;;;;;;;;0.75;0.75;;;;;23.04;37.31;101859.66;6302976;22;45251;-88
2022/07/04 11:05:06;;;;;;;;;1.00;1.00;;;;;23.15;37.63;101859.81;6276712;22;45374;-89
2022/07/04 11:07:35;;;;;;;;;2.75;2.00;;;;;23.24;36.88;101867.19;6304428;22;45341;-89
2022/07/04 11:12:56;;;;;;;;;2.00;1.50;;;;;23.48;37.09;101861.22;6304625;22;45642;-90
2022/07/04 11:15:24;;;;;;;;;2.75;0.75;;;;;23.62;37.30;101852.31;6303890;22;45213;-90
2022/07/04 11:17:51;;;;;;;;;2.00;2.00;;;;;23.77;36.65;101853.94;6302346;22;45325;-89
2022/07/04 11:20:18;;;;;;;;;1.00;1.00;;;;;23.91;36.84;101845.94;6276809;22;45349;-86
2022/07/04 11:22:43;;;;;;;;;1.25;1.25;;;;;24.02;35.87;101839.03;6275945;22;45314;-89
2022/07/04 11:25:11;;;;;;;;;1.75;1.75;;;;;24.33;36.85;101846.59;6276192;22;45371;-85
2022/07/04 11:27:37;;;;;;;;;1.00;1.00;;;;;24.63;36.02;101840.13;6302801;22;45274;-86
2022/07/04 11:30:05;;;;;;;;;1.00;1.00;;;;;24.94;35.18;101832.56;6274524;22;46861;-87
2022/07/04 11:32:32;;;;;;;;;2.00;1.25;;;;;25.37;34.95;101840.13;6302384;22;45306;-87
2022/07/04 11:34:58;;;;;;;;;1.25;1.25;;;;;26.44;34.61;101848.88;6275466;22;45277;-89
2022/07/04 11:37:24;;;;;;;;;2.00;2.00;;;;;30.19;30.80;101833.47;6275131;22;45463;-90
2022/07/04 11:39:53;;;;;;;;;3.00;2.00;;;;;34.49;24.40;101848.88;6278004;22;46914;-91
2022/07/04 11:45:22;;;;;;;;;3.00;1.25;;;;;40.38;19.16;101859.47;6282996;22;45232;-94
2022/07/04 11:47:49;;;;;;;;;2.00;2.00;;;;;41.63;16.03;101866.25;6279741;22;45408;-93
2022/07/04 11:50:19;;;;;;;;;1.25;1.25;;;;;42.47;16.47;101852.94;6279108;22;45686;-91
2022/07/04 11:52:47;;;;;;;;;0.00;0.00;;;;;44.14;15.69;101858.50;6254015;22;45538;-91
2022/07/04 11:55:14;;;;;;;;;0.50;0.00;;;;;45.29;14.60;101859.25;6279960;22;45263;-90
2022/07/04 11:57:54;;;;;;;;;0.00;0.00;;;;;46.09;15.43;101865.41;6278925;22;45298;-89
2022/07/04 12:00:25;;;;;;;;;0.00;0.00;;;;;47.04;13.93;101851.25;6278284;22;47083;-89
2022/07/04 12:02:50;;;;;;;;;0.00;0.00;;;;;47.74;13.14;101847.63;6252208;22;45310;-90